Time;durP1;ratioP1;P1;durP2;ratioP2;P2;SDS_P1;SDS_P2;PMS_P1;PMS_P2;Temp;Humidity;BMP_temperature;BMP_pressure;BME280_temperature;BME280_humidity;BME280_pressure;Samples;Min_cycle;Max_cycle;Signal;HPM_P1;HPM_P2
2022/03/24 00:00:59;;;;;;;33.17;23.73;;;13.00;65.30;;;;;;4979077;28;20494;-83
2022/03/24 00:03:27;;;;;;;27.87;23.20;;;12.80;66.70;;;;;;4965899;28;20474;-84
2022/03/24 00:05:54;;;;;;;29.90;22.50;;;12.80;67.90;;;;;;4983446;28;20513;-82
2022/03/24 00:08:24;;;;;;;29.43;24.00;;;12.70;68.60;;;;;;4981089;28;20467;-83
2022/03/24 00:10:51;;;;;;;34.43;24.03;;;12.70;68.90;;;;;;4982134;28;20462;-84
2022/03/24 00:13:17;;;;;;;27.10;23.03;;;12.70;69.00;;;;;;4986271;28;20486;-83
2022/03/24 00:15:44;;;;;;;27.00;22.00;;;12.70;69.60;;;;;;4987526;28;20467;-84
2022/03/24 00:18:14;;;;;;;30.00;23.70;;;12.70;70.10;;;;;;4987048;28;20911;-84
2022/03/24 00:20:42;;;;;;;34.13;22.57;;;12.70;70.90;;;;;;4990761;28;20824;-85
2022/03/24 00:23:10;;;;;;;33.77;22.53;;;12.80;71.70;;;;;;4989914;28;20494;-84
2022/03/24 00:25:38;;;;;;;34.53;23.73;;;12.80;72.00;;;;;;4973207;28;20490;-83
2022/03/24 00:28:07;;;;;;;29.20;21.50;;;12.60;72.30;;;;;;4988438;28;20490;-83
2022/03/24 00:30:36;;;;;;;32.57;23.00;;;12.40;73.20;;;;;;4972615;28;20478;-83
2022/03/24 00:33:03;;;;;;;29.57;20.77;;;12.30;73.80;;;;;;4978156;28;20513;-85
2022/03/24 00:35:31;;;;;;;34.23;22.50;;;12.20;74.20;;;;;;4992421;28;20487;-84
2022/03/24 00:37:58;;;;;;;25.00;20.10;;;12.20;74.70;;;;;;4976034;28;20455;-84
2022/03/24 00:40:26;;;;;;;25.20;20.90;;;12.20;74.80;;;;;;4990926;28;21071;-81
2022/03/24 00:42:53;;;;;;;29.53;22.37;;;12.20;73.60;;;;;;4989864;28;20495;-83
2022/03/24 00:45:20;;;;;;;28.10;21.30;;;12.40;73.60;;;;;;4991307;28;20489;-83
2022/03/24 00:47:48;;;;;;;30.90;21.30;;;12.50;73.10;;;;;;4974925;28;20470;-84
2022/03/24 00:50:15;;;;;;;24.13;19.63;;;12.40;72.10;;;;;;4976742;28;20474;-84
2022/03/24 00:52:45;;;;;;;29.20;19.13;;;12.30;71.80;;;;;;4997215;28;21152;-84
2022/03/24 00:55:17;;;;;;;29.43;19.90;;;12.10;72.30;;;;;;4995656;28;20621;-82
2022/03/24 00:57:49;;;;;;;27.23;18.97;;;12.00;72.40;;;;;;4994386;28;20443;-85
2022/03/24 01:00:20;;;;;;;25.13;19.13;;;11.90;71.90;;;;;;4981660;28;20459;-83
2022/03/24 01:02:49;;;;;;;24.40;19.70;;;11.60;71.60;;;;;;4985337;28;20497;-83
2022/03/24 01:05:16;;;;;;;23.10;19.87;;;11.70;71.90;;;;;;4991160;28;20460;-83
2022/03/24 01:07:44;;;;;;;24.87;17.83;;;11.60;71.80;;;;;;5007188;28;20459;-82
2022/03/24 01:10:13;;;;;;;23.57;18.40;;;11.60;71.40;;;;;;5000963;28;20536;-83
2022/03/24 01:12:41;;;;;;;25.40;19.10;;;11.60;71.50;;;;;;4975669;28;20477;-84
2022/03/24 01:15:09;;;;;;;24.70;18.00;;;11.70;71.20;;;;;;5009425;28;20489;-83
2022/03/24 01:17:37;;;;;;;28.20;18.97;;;11.70;71.40;;;;;;4995363;28;20435;-83
2022/03/24 01:20:05;;;;;;;24.07;18.50;;;11.50;71.40;;;;;;4993466;28;20442;-86
2022/03/24 01:22:32;;;;;;;26.33;17.67;;;11.50;71.50;;;;;;5002673;28;20442;-85
2022/03/24 01:24:59;;;;;;;25.03;18.23;;;11.50;71.80;;;;;;5001962;28;20451;-87
2022/03/24 01:27:28;;;;;;;24.67;17.63;;;11.40;72.00;;;;;;5017028;28;20442;-84
2022/03/24 01:29:56;;;;;;;26.73;18.67;;;11.40;72.50;;;;;;4990942;28;20478;-85
2022/03/24 01:32:26;;;;;;;23.50;17.83;;;11.40;73.20;;;;;;5002282;28;20529;-85
2022/03/24 01:34:54;;;;;;;23.63;17.60;;;11.30;73.80;;;;;;4991973;28;20470;-84
2022/03/24 01:37:25;;;;;;;24.73;17.90;;;11.30;74.50;;;;;;5004006;28;20624;-85
2022/03/24 01:39:53;;;;;;;22.33;17.17;;;11.50;75.50;;;;;;5009415;28;20499;-83
2022/03/24 01:42:21;;;;;;;24.10;17.23;;;11.60;75.00;;;;;;4990403;28;20459;-86
2022/03/24 01:44:48;;;;;;;23.80;18.10;;;11.50;75.20;;;;;;5000632;28;20487;-83
2022/03/24 01:47:16;;;;;;;25.77;18.07;;;11.40;76.20;;;;;;4986318;28;20454;-85
2022/03/24 01:49:47;;;;;;;26.67;18.40;;;11.30;76.90;;;;;;4981480;28;20490;-83
2022/03/24 01:52:16;;;;;;;20.50;16.53;;;11.30;77.30;;;;;;4980110;28;20916;-81
2022/03/24 01:54:46;;;;;;;27.40;17.00;;;11.20;77.00;;;;;;4998604;28;20498;-83
2022/03/24 01:57:15;;;;;;;23.03;17.10;;;11.10;76.90;;;;;;4987098;28;20451;-81
2022/03/24 01:59:42;;;;;;;20.60;16.70;;;11.10;76.90;;;;;;4992324;28;21000;-83
2022/03/24 02:02:10;;;;;;;22.03;17.13;;;11.00;76.70;;;;;;4998889;28;20456;-84
2022/03/24 02:04:38;;;;;;;20.73;15.83;;;10.90;77.00;;;;;;5002230;28;20479;-82
2022/03/24 02:07:06;;;;;;;24.60;17.50;;;10.80;77.60;;;;;;4974707;28;20578;-86
2022/03/24 02:09:35;;;;;;;23.37;16.17;;;10.70;78.00;;;;;;4999806;28;20455;-84
2022/03/24 02:12:04;;;;;;;24.27;17.10;;;10.90;78.20;;;;;;4981524;28;20550;-85
2022/03/24 02:14:31;;;;;;;22.20;17.03;;;11.00;77.80;;;;;;4975642;28;20638;-84
2022/03/24 02:16:58;;;;;;;21.40;17.50;;;11.00;77.50;;;;;;4992037;28;20451;-83
2022/03/24 02:19:26;;;;;;;21.00;16.73;;;11.00;77.30;;;;;;4975235;28;20459;-84
2022/03/24 02:21:55;;;;;;;22.57;17.60;;;10.90;77.10;;;;;;4975680;28;20452;-84
2022/03/24 02:24:24;;;;;;;23.23;17.93;;;10.80;77.30;;;;;;4992208;28;20490;-82
2022/03/24 02:26:52;;;;;;;20.83;16.80;;;10.80;77.60;;;;;;4976355;28;20469;-84
2022/03/24 02:29:25;;;;;;;23.97;16.57;;;10.70;77.70;;;;;;4975297;28;20451;-85
2022/03/24 02:31:53;;;;;;;24.57;17.00;;;10.70;77.90;;;;;;4989678;28;20467;-83
2022/03/24 02:34:38;;;;;;;22.70;17.07;;;10.70;78.30;;;;;;4992174;28;20490;-83
2022/03/24 02:37:09;;;;;;;25.33;17.50;;;10.60;78.50;;;;;;4993445;28;20542;-82
2022/03/24 02:39:38;;;;;;;21.57;16.47;;;10.60;79.10;;;;;;4985470;28;21051;-84
2022/03/24 02:42:08;;;;;;;23.20;17.57;;;10.60;79.60;;;;;;4989174;28;20470;-83
2022/03/24 02:44:34;;;;;;;22.70;16.77;;;10.50;79.40;;;;;;4974623;28;20502;-83
2022/03/24 02:47:03;;;;;;;19.90;16.10;;;10.60;79.40;;;;;;4990625;28;20498;-83
2022/03/24 02:49:31;;;;;;;22.03;17.70;;;10.40;79.50;;;;;;4985458;28;20475;-86
2022/03/24 02:51:59;;;;;;;21.20;16.57;;;10.60;80.00;;;;;;4976068;28;20472;-84
2022/03/24 02:54:28;;;;;;;23.20;18.07;;;10.50;79.60;;;;;;4978142;28;20501;-83
2022/03/24 02:56:55;;;;;;;23.93;18.00;;;10.50;80.00;;;;;;4972104;28;20867;-83
2022/03/24 02:59:22;;;;;;;24.40;17.63;;;10.30;80.50;;;;;;4971796;28;20554;-84
2022/03/24 03:01:53;;;;;;;21.43;17.87;;;10.30;81.60;;;;;;4983829;28;20459;-84
2022/03/24 03:04:21;;;;;;;20.93;17.23;;;10.30;81.70;;;;;;4985033;28;20510;-83
2022/03/24 03:06:48;;;;;;;22.30;16.33;;;10.40;81.90;;;;;;4971720;28;20459;-84
2022/03/24 03:09:16;;;;;;;27.90;18.00;;;10.30;81.80;;;;;;4989892;28;20875;-84
2022/03/24 03:11:45;;;;;;;21.97;17.60;;;10.40;82.20;;;;;;4992350;28;20462;-81
2022/03/24 03:14:14;;;;;;;30.43;18.43;;;10.50;82.50;;;;;;4972221;28;20494;-85
2022/03/24 03:16:41;;;;;;;22.37;17.40;;;10.30;82.70;;;;;;4976853;28;20459;-84
2022/03/24 03:19:08;;;;;;;23.67;16.90;;;10.30;83.80;;;;;;4984286;28;20489;-83
2022/03/24 03:21:40;;;;;;;25.33;18.50;;;10.30;84.30;;;;;;4973840;28;20459;-85
2022/03/24 03:24:11;;;;;;;24.97;17.30;;;10.30;84.20;;;;;;4984570;28;20489;-85
2022/03/24 03:26:43;;;;;;;27.63;17.70;;;10.30;83.70;;;;;;4970411;28;20454;-83
2022/03/24 03:29:12;;;;;;;21.83;16.97;;;10.20;83.30;;;;;;4969647;28;20459;-83
2022/03/24 03:31:39;;;;;;;24.57;16.50;;;10.00;82.00;;;;;;4986339;28;20467;-85
2022/03/24 03:34:08;;;;;;;23.07;16.30;;;9.90;82.80;;;;;;4969677;28;20498;-84
2022/03/24 03:36:37;;;;;;;26.77;18.10;;;9.80;83.30;;;;;;4984015;28;20463;-86
2022/03/24 03:39:08;;;;;;;22.87;18.50;;;9.90;83.40;;;;;;4971632;28;20530;-84
2022/03/24 03:41:39;;;;;;;21.63;16.77;;;9.90;83.90;;;;;;4968787;28;20467;-84
2022/03/24 03:44:07;;;;;;;25.87;18.37;;;9.80;83.00;;;;;;4972694;28;20495;-84
2022/03/24 03:46:35;;;;;;;25.30;20.07;;;9.80;83.30;;;;;;4984811;28;20529;-84
2022/03/24 03:49:07;;;;;;;22.70;18.20;;;9.70;83.40;;;;;;4985307;28;20498;-85
2022/03/24 03:51:37;;;;;;;21.33;18.17;;;9.60;83.80;;;;;;4970046;28;20478;-83
2022/03/24 03:54:08;;;;;;;22.27;18.07;;;9.60;84.00;;;;;;4986447;28;20576;-85
2022/03/24 03:56:40;;;;;;;24.90;17.50;;;9.50;84.30;;;;;;4976770;28;20482;-87
2022/03/24 03:59:14;;;;;;;28.17;17.67;;;9.40;84.80;;;;;;4978775;28;20530;-86
2022/03/24 04:01:43;;;;;;;23.27;17.20;;;9.40;85.70;;;;;;4992918;28;20551;-83
2022/03/24 04:04:24;;;;;;;20.93;16.60;;;9.30;85.90;;;;;;4979412;28;20813;-83
2022/03/24 04:07:03;;;;;;;24.57;16.57;;;9.50;85.90;;;;;;4992829;28;20473;-87
2022/03/24 04:09:47;;;;;;;25.30;18.80;;;9.50;85.90;;;;;;4971889;28;20549;-85
2022/03/24 04:12:23;;;;;;;23.13;16.53;;;9.30;86.50;;;;;;4977705;28;20480;-85
2022/03/24 04:14:53;;;;;;;21.90;16.87;;;9.30;87.10;;;;;;4990171;28;20544;-83
2022/03/24 04:17:24;;;;;;;21.60;17.07;;;9.50;87.70;;;;;;4975885;28;20463;-82
2022/03/24 04:19:51;;;;;;;23.97;17.90;;;9.40;86.90;;;;;;4992634;28;20451;-84
2022/03/24 04:22:25;;;;;;;27.00;17.73;;;9.40;87.60;;;;;;4985337;28;20479;-83
2022/03/24 04:24:57;;;;;;;22.33;17.27;;;9.30;88.00;;;;;;4981803;28;20503;-83
2022/03/24 04:27:24;;;;;;;25.93;17.00;;;9.40;88.80;;;;;;4982595;28;20475;-80
2022/03/24 04:29:57;;;;;;;25.37;19.30;;;9.30;89.60;;;;;;4995192;28;20451;-83
2022/03/24 04:32:30;;;;;;;29.17;18.07;;;9.40;90.10;;;;;;5001525;28;20446;-84
2022/03/24 04:35:00;;;;;;;25.90;18.57;;;9.40;90.20;;;;;;5013575;28;20514;-83
2022/03/24 04:37:30;;;;;;;30.63;19.33;;;9.30;90.40;;;;;;4989609;28;20483;-84
2022/03/24 04:39:59;;;;;;;26.63;17.43;;;9.30;90.20;;;;;;4971560;28;20468;-80
2022/03/24 04:42:30;;;;;;;25.03;18.30;;;9.40;90.50;;;;;;4973210;28;20479;-82
2022/03/24 04:45:06;;;;;;;23.57;16.20;;;9.30;89.60;;;;;;4975589;28;20478;-83
2022/03/24 04:47:35;;;;;;;28.67;19.33;;;9.40;89.10;;;;;;4992910;28;20490;-83
2022/03/24 04:50:03;;;;;;;25.10;17.97;;;9.20;89.40;;;;;;4989503;28;20474;-84
2022/03/24 04:52:31;;;;;;;26.50;17.40;;;9.30;89.70;;;;;;4972056;28;20475;-83
2022/03/24 04:55:01;;;;;;;27.00;18.70;;;9.50;89.30;;;;;;4976518;28;20502;-87
2022/03/24 04:57:31;;;;;;;25.20;18.90;;;9.50;88.20;;;;;;4976089;28;20457;-87
2022/03/24 05:00:06;;;;;;;24.20;17.87;;;9.30;88.50;;;;;;4980380;28;20478;-83
2022/03/24 05:02:39;;;;;;;29.73;18.20;;;9.30;89.00;;;;;;4980773;28;20462;-86
2022/03/24 05:05:08;;;;;;;26.80;17.93;;;9.40;88.40;;;;;;4977049;28;20474;-82
2022/03/24 05:07:37;;;;;;;29.50;19.83;;;9.50;87.70;;;;;;4991293;28;20569;-85
2022/03/24 05:10:08;;;;;;;31.73;19.47;;;9.30;87.90;;;;;;4974840;28;20520;-85
2022/03/24 05:12:40;;;;;;;30.83;20.63;;;9.20;88.10;;;;;;4994179;28;22538;-85
2022/03/24 05:15:14;;;;;;;36.23;21.23;;;9.10;88.70;;;;;;4980495;28;20492;-84
2022/03/24 05:18:01;;;;;;;29.30;18.43;;;9.20;89.70;;;;;;4991756;28;20473;-84
2022/03/24 05:20:39;;;;;;;33.07;18.97;;;9.10;89.30;;;;;;4993303;28;20466;-83
2022/03/24 05:23:09;;;;;;;26.03;18.13;;;9.00;89.60;;;;;;4989509;28;20459;-82
2022/03/24 05:25:39;;;;;;;28.80;18.53;;;9.10;89.90;;;;;;4973092;28;20510;-83
2022/03/24 05:28:05;;;;;;;29.77;19.90;;;9.00;89.90;;;;;;4989234;28;20554;-84
2022/03/24 05:30:32;;;;;;;26.30;18.90;;;9.00;90.00;;;;;;4990083;28;20463;-83
2022/03/24 05:32:59;;;;;;;25.20;17.93;;;9.10;89.50;;;;;;4987942;28;21138;-86
2022/03/24 05:35:29;;;;;;;21.63;17.47;;;9.10;89.10;;;;;;4978236;28;20565;-87
2022/03/24 05:37:56;;;;;;;25.03;18.57;;;9.00;89.10;;;;;;4975742;28;20470;-85
2022/03/24 05:40:23;;;;;;;27.87;17.70;;;8.80;90.00;;;;;;4978440;28;21279;-85
2022/03/24 05:42:49;;;;;;;26.37;19.07;;;8.80;90.20;;;;;;4995655;28;20463;-84
2022/03/24 05:45:16;;;;;;;24.27;18.70;;;8.70;90.30;;;;;;4997626;28;20510;-85
2022/03/24 05:47:43;;;;;;;27.90;19.67;;;8.70;90.60;;;;;;4988032;28;20471;-85
2022/03/24 05:50:11;;;;;;;27.00;18.80;;;8.90;90.60;;;;;;4988719;28;20537;-83
2022/03/24 05:52:40;;;;;;;25.53;19.80;;;9.00;90.20;;;;;;4991817;28;20454;-83
2022/03/24 05:55:09;;;;;;;28.47;19.60;;;8.90;90.00;;;;;;4976201;28;20490;-80
2022/03/24 05:57:35;;;;;;;25.80;18.90;;;8.90;89.80;;;;;;4990703;28;22447;-84
2022/03/24 06:00:06;;;;;;;24.20;17.93;;;9.00;90.20;;;;;;4993563;28;20463;-85
2022/03/24 06:02:34;;;;;;;30.43;18.87;;;8.90;89.30;;;;;;4988902;28;20994;-81
2022/03/24 06:05:01;;;;;;;26.90;19.57;;;8.90;89.40;;;;;;4986589;28;20479;-81
2022/03/24 06:07:28;;;;;;;31.47;17.77;;;9.00;89.20;;;;;;4971267;28;20462;-83
2022/03/24 06:09:55;;;;;;;32.33;19.20;;;9.20;89.00;;;;;;4983350;28;20469;-83
2022/03/24 06:12:22;;;;;;;27.23;18.50;;;9.30;87.90;;;;;;4981293;28;20455;-83
2022/03/24 06:14:54;;;;;;;24.70;18.13;;;9.50;86.90;;;;;;4981231;28;20494;-83
2022/03/24 06:17:20;;;;;;;27.60;19.60;;;9.50;86.60;;;;;;4966301;28;20455;-83
2022/03/24 06:19:52;;;;;;;27.47;19.83;;;9.90;86.30;;;;;;4969520;28;20463;-81
2022/03/24 06:22:19;;;;;;;29.30;18.10;;;11.10;80.30;;;;;;4984471;28;20471;-82
2022/03/24 06:24:49;;;;;;;23.13;17.03;;;11.90;76.20;;;;;;4986473;28;20489;-85
2022/03/24 06:27:18;;;;;;;25.30;18.40;;;12.40;71.40;;;;;;4981989;28;20455;-83
2022/03/24 06:29:45;;;;;;;26.70;17.83;;;12.70;69.20;;;;;;4984775;28;20833;-83
2022/03/24 06:32:13;;;;;;;25.83;18.47;;;12.10;68.70;;;;;;4983903;28;20561;-85
2022/03/24 06:34:39;;;;;;;29.17;19.43;;;11.20;71.20;;;;;;4985846;28;21191;-85
2022/03/24 06:37:07;;;;;;;27.40;18.60;;;10.30;74.10;;;;;;4966468;28;20451;-83
2022/03/24 06:39:34;;;;;;;27.13;19.03;;;9.70;79.20;;;;;;4984982;28;20454;-83
2022/03/24 06:42:02;;;;;;;25.53;18.17;;;10.20;80.50;;;;;;4974292;28;20524;-83
2022/03/24 06:44:29;;;;;;;27.53;18.37;;;10.40;76.60;;;;;;4979712;28;20599;-82
2022/03/24 06:46:57;;;;;;;28.70;20.10;;;9.70;79.50;;;;;;4987723;28;20459;-83
2022/03/24 06:49:24;;;;;;;27.67;18.90;;;9.30;82.40;;;;;;4973661;28;20459;-80
2022/03/24 06:51:51;;;;;;;26.50;17.90;;;9.00;84.60;;;;;;4972848;28;20466;-83
2022/03/24 06:54:18;;;;;;;24.63;17.73;;;8.80;85.80;;;;;;4992026;28;20559;-82
2022/03/24 06:56:44;;;;;;;28.17;19.77;;;8.70;87.00;;;;;;4973738;28;20471;-82
2022/03/24 06:59:11;;;;;;;30.23;19.00;;;8.60;87.40;;;;;;4972227;28;20550;-82
2022/03/24 07:01:40;;;;;;;25.80;17.57;;;8.60;88.30;;;;;;4981336;28;20459;-83
2022/03/24 07:04:07;;;;;;;28.40;19.33;;;8.70;88.90;;;;;;4969076;28;21005;-83
2022/03/24 07:06:34;;;;;;;24.47;18.47;;;9.00;87.50;;;;;;4970930;28;20478;-84
2022/03/24 07:09:01;;;;;;;32.50;20.80;;;9.10;86.80;;;;;;4969712;28;20467;-84
2022/03/24 07:11:28;;;;;;;34.60;21.40;;;9.30;86.20;;;;;;4970073;28;20545;-84
2022/03/24 07:13:55;;;;;;;29.60;19.70;;;9.30;86.00;;;;;;4966047;28;21157;-83
2022/03/24 07:16:22;;;;;;;30.10;20.07;;;9.60;84.80;;;;;;4983916;28;21041;-82
2022/03/24 07:18:48;;;;;;;25.30;19.43;;;9.80;84.00;;;;;;4982721;28;20459;-84
2022/03/24 07:21:15;;;;;;;27.70;20.83;;;9.70;83.90;;;;;;4970907;28;20447;-83
2022/03/24 07:23:43;;;;;;;30.87;19.90;;;9.90;83.20;;;;;;4972436;28;20459;-82
2022/03/24 07:26:10;;;;;;;30.30;21.40;;;10.20;81.50;;;;;;4969913;28;20466;-83
2022/03/24 07:28:37;;;;;;;27.77;19.50;;;11.70;79.20;;;;;;4991358;28;20470;-84
2022/03/24 07:31:13;;;;;;;30.90;20.07;;;14.40;69.30;;;;;;4987136;28;20930;-84
2022/03/24 07:33:40;;;;;;;27.87;20.50;;;16.40;60.70;;;;;;4986407;28;20479;-83
2022/03/24 07:36:07;;;;;;;34.67;19.43;;;17.70;55.60;;;;;;4982812;28;20573;-86
2022/03/24 07:38:36;;;;;;;27.60;21.33;;;18.10;52.70;;;;;;4976699;28;20460;-85
2022/03/24 07:41:09;;;;;;;26.00;21.37;;;18.80;51.60;;;;;;4979442;28;20466;-82
2022/03/24 07:43:36;;;;;;;24.70;22.03;;;19.60;49.30;;;;;;4983371;28;20455;-83
2022/03/24 07:46:08;;;;;;;34.73;27.30;;;20.20;48.10;;;;;;4978093;28;20475;-83
2022/03/24 07:48:49;;;;;;;30.37;21.40;;;20.50;46.90;;;;;;4976361;28;20475;-86
2022/03/24 07:51:21;;;;;;;26.73;21.77;;;21.50;45.10;;;;;;4963675;28;20553;-87
2022/03/24 07:53:59;;;;;;;27.10;20.97;;;21.70;43.70;;;;;;4963261;28;20528;-84
2022/03/24 07:56:29;;;;;;;29.50;22.07;;;21.40;43.40;;;;;;4984166;28;20518;-85
2022/03/24 07:58:58;;;;;;;25.90;22.63;;;21.30;43.30;;;;;;4984793;28;20470;-88
2022/03/24 08:01:32;;;;;;;27.13;22.60;;;21.60;43.20;;;;;;4981146;28;20462;-85
2022/03/24 08:04:07;;;;;;;33.47;23.73;;;21.80;42.80;;;;;;4984651;28;20568;-86
2022/03/24 08:06:36;;;;;;;29.03;23.70;;;22.00;41.70;;;;;;4970358;28;20474;-84
2022/03/24 08:09:35;;;;;;;29.20;22.77;;;21.60;41.80;;;;;;4963168;28;20474;-86
2022/03/24 08:12:09;;;;;;;30.40;24.50;;;21.20;42.20;;;;;;4963630;28;20913;-85
2022/03/24 08:14:38;;;;;;;30.10;23.70;;;19.60;43.60;;;;;;4969271;28;20553;-85
2022/03/24 08:17:12;;;;;;;32.47;24.23;;;17.10;45.90;;;;;;4982137;28;20496;-83
2022/03/24 08:19:39;;;;;;;28.30;24.20;;;15.50;49.60;;;;;;4964809;28;20467;-83
2022/03/24 08:22:07;;;;;;;29.93;23.20;;;14.50;52.40;;;;;;4972291;28;20550;-82
2022/03/24 08:24:37;;;;;;;32.43;23.07;;;13.80;54.50;;;;;;4972358;28;20497;-83
2022/03/24 08:27:07;;;;;;;34.40;25.77;;;13.50;56.50;;;;;;4976919;28;20475;-83
2022/03/24 08:29:36;;;;;;;32.63;24.27;;;13.30;57.60;;;;;;4962323;28;20505;-82
2022/03/24 08:32:07;;;;;;;34.00;23.77;;;13.10;58.30;;;;;;4981643;28;20462;-79
2022/03/24 08:34:40;;;;;;;36.20;24.73;;;13.10;59.00;;;;;;4986857;28;20482;-83
2022/03/24 08:37:08;;;;;;;33.50;25.50;;;13.00;59.50;;;;;;4970969;28;20525;-83
2022/03/24 08:39:40;;;;;;;33.17;24.47;;;13.00;59.90;;;;;;4984867;28;20493;-84
2022/03/24 08:42:15;;;;;;;31.50;24.80;;;13.00;59.90;;;;;;4987353;28;20455;-84
2022/03/24 08:44:53;;;;;;;38.40;24.50;;;12.90;60.40;;;;;;4974011;28;20490;-83
2022/03/24 08:47:20;;;;;;;34.67;25.53;;;12.90;60.80;;;;;;4990484;28;20565;-84
2022/03/24 08:49:52;;;;;;;35.63;25.57;;;12.80;60.70;;;;;;4982218;28;20462;-85
2022/03/24 08:52:21;;;;;;;34.63;25.30;;;12.80;60.50;;;;;;4990487;28;20466;-84
2022/03/24 08:54:57;;;;;;;32.30;24.63;;;12.80;60.50;;;;;;4978897;28;20501;-86
2022/03/24 08:57:28;;;;;;;36.07;24.07;;;12.80;60.50;;;;;;4975385;28;20474;-85
2022/03/24 09:00:00;;;;;;;38.13;25.77;;;12.80;60.30;;;;;;4992229;28;20454;-85
2022/03/24 09:02:37;;;;;;;36.73;26.07;;;12.90;60.50;;;;;;4983045;28;20470;-82
2022/03/24 09:05:10;;;;;;;42.27;25.77;;;13.00;59.20;;;;;;4984316;28;20586;-82
2022/03/24 09:07:45;;;;;;;37.07;26.80;;;13.10;58.40;;;;;;4992339;28;20539;-84
2022/03/24 09:10:19;;;;;;;42.23;27.20;;;13.20;57.50;;;;;;4972520;28;20507;-84
2022/03/24 09:12:55;;;;;;;40.23;27.43;;;13.20;56.70;;;;;;4988569;28;20462;-84
2022/03/24 09:15:26;;;;;;;39.13;27.00;;;13.20;56.50;;;;;;4974378;28;20629;-84
2022/03/24 09:17:56;;;;;;;44.47;28.50;;;13.20;56.30;;;;;;4982699;28;20455;-85
2022/03/24 09:20:35;;;;;;;42.53;28.47;;;13.30;55.40;;;;;;4993461;28;21823;-83
2022/03/24 09:23:04;;;;;;;38.37;27.63;;;13.40;54.70;;;;;;4979663;28;20869;-84
2022/03/24 09:25:33;;;;;;;40.33;29.13;;;13.50;53.10;;;;;;4994842;28;20525;-83
2022/03/24 09:28:00;;;;;;;42.73;28.30;;;13.50;52.50;;;;;;4985059;28;20483;-85
2022/03/24 09:30:31;;;;;;;41.53;29.00;;;13.70;52.30;;;;;;4977496;28;20473;-85
2022/03/24 09:33:04;;;;;;;40.70;29.00;;;13.80;52.80;;;;;;4978098;28;20536;-85
2022/03/24 09:35:37;;;;;;;39.63;26.67;;;13.80;53.40;;;;;;4989277;28;20494;-84
2022/03/24 09:38:20;;;;;;;36.40;25.73;;;13.90;53.50;;;;;;4990809;28;20454;-86
2022/03/24 09:41:08;;;;;;;37.50;27.87;;;14.00;53.40;;;;;;4994314;28;20483;-83
2022/03/24 09:43:58;;;;;;;39.97;28.00;;;14.10;53.20;;;;;;4979334;28;20498;-86
2022/03/24 09:46:41;;;;;;;36.47;28.40;;;14.20;53.40;;;;;;4980630;28;22202;-86
2022/03/24 09:49:22;;;;;;;39.00;27.90;;;14.40;52.90;;;;;;4990360;28;20534;-87
2022/03/24 09:52:21;;;;;;;41.70;28.00;;;14.30;53.20;;;;;;4978334;28;20455;-85
2022/03/24 09:55:32;;;;;;;39.10;29.17;;;14.40;53.00;;;;;;4976328;28;21082;-86
2022/03/24 09:58:26;;;;;;;43.90;29.83;;;14.80;53.30;;;;;;4995184;28;20498;-86
2022/03/24 10:01:13;;;;;;;40.00;30.10;;;17.00;50.10;;;;;;4982594;28;20454;-84
2022/03/24 10:04:22;;;;;;;37.47;30.77;;;18.90;46.20;;;;;;4970142;28;20462;-84
2022/03/24 10:10:06;;;;;;;41.13;31.63;;;20.90;41.90;;;;;;4990263;28;20474;-86
2022/03/24 10:12:39;;;;;;;42.10;33.13;;;21.60;40.00;;;;;;4981443;28;20455;-85
2022/03/24 10:15:17;;;;;;;39.20;31.27;;;22.00;38.70;;;;;;4983085;28;20491;-87
2022/03/24 10:18:18;;;;;;;38.50;32.67;;;22.50;38.00;;;;;;4975354;28;20474;-84
2022/03/24 10:21:35;;;;;;;41.47;33.50;;;23.20;36.60;;;;;;4973945;28;20467;-85
2022/03/24 10:27:42;;;;;;;40.40;32.07;;;23.30;36.30;;;;;;4988386;28;20494;-84
2022/03/24 10:30:17;;;;;;;42.77;34.50;;;23.60;35.00;;;;;;4973173;28;20487;-85
2022/03/24 10:33:06;;;;;;;39.13;34.63;;;23.80;34.70;;;;;;4974048;28;20459;-82
2022/03/24 10:36:14;;;;;;;39.00;33.50;;;24.00;34.10;;;;;;4990469;28;20495;-86
2022/03/24 10:39:16;;;;;;;42.23;34.60;;;24.00;33.90;;;;;;4986174;28;20490;-84
2022/03/24 10:41:46;;;;;;;39.20;31.93;;;22.80;34.40;;;;;;4993469;28;20482;-86
2022/03/24 10:44:17;;;;;;;45.30;35.77;;;21.70;35.60;;;;;;4979345;28;20485;-84
2022/03/24 10:47:00;;;;;;;40.40;34.77;;;21.40;36.70;;;;;;4981704;28;21358;-85
2022/03/24 10:49:41;;;;;;;42.37;33.87;;;21.60;36.80;;;;;;4983866;28;20548;-86
2022/03/24 10:52:28;;;;;;;40.50;34.70;;;22.10;36.10;;;;;;4995319;28;20938;-85
2022/03/24 10:55:00;;;;;;;38.60;34.30;;;21.90;36.00;;;;;;4997722;28;20518;-87
2022/03/24 10:57:41;;;;;;;44.60;33.53;;;22.50;35.90;;;;;;5004387;28;20947;-85
2022/03/24 11:00:34;;;;;;;49.37;35.77;;;22.80;35.30;;;;;;4988078;28;20466;-83
2022/03/24 11:03:28;;;;;;;41.87;35.13;;;23.10;34.70;;;;;;4985744;28;20459;-84
2022/03/24 11:06:36;;;;;;;40.53;34.37;;;23.60;34.10;;;;;;4977389;28;20508;-85
2022/03/24 11:09:14;;;;;;;40.43;33.83;;;23.20;34.20;;;;;;4981944;28;20465;-84
2022/03/24 11:12:16;;;;;;;38.20;33.93;;;23.80;33.50;;;;;;5001308;28;20451;-85
2022/03/24 11:14:59;;;;;;;43.50;36.00;;;24.00;32.90;;;;;;4985000;28;20484;-84
2022/03/24 11:17:51;;;;;;;41.17;34.87;;;23.80;33.00;;;;;;4960022;28;21015;-85
2022/03/24 11:20:43;;;;;;;40.73;36.27;;;23.50;33.00;;;;;;5001669;28;20451;-84
2022/03/24 11:23:43;;;;;;;40.50;36.00;;;23.60;32.50;;;;;;4989304;28;20807;-86
2022/03/24 11:26:35;;;;;;;39.33;34.30;;;24.00;32.50;;;;;;5010593;23;20470;-87
2022/03/24 11:29:14;;;;;;;35.60;31.77;;;24.20;32.50;;;;;;5007105;28;20473;-87
2022/03/24 11:31:49;;;;;;;33.73;28.00;;;24.00;32.40;;;;;;5022538;28;20458;-88
2022/03/24 11:34:20;;;;;;;38.50;34.43;;;23.40;31.60;;;;;;5005307;28;20497;-86
2022/03/24 11:37:02;;;;;;;31.33;28.27;;;24.70;31.20;;;;;;5006322;28;20582;-88
2022/03/24 11:40:15;;;;;;;23.33;20.03;;;24.50;31.10;;;;;;4996745;28;20454;-89
2022/03/24 11:43:25;;;;;;;17.33;15.53;;;25.40;29.60;;;;;;4968294;28;20462;-84
2022/03/24 11:50:59;;;;;;;18.00;14.17;;;24.10;29.30;;;;;;4957759;28;20427;-85
2022/03/24 11:58:12;;;;;;;;;;;;;;;;;;;;;
2022/03/24 12:02:00;;;;;;;;;;;;;;;;;;;;;
2022/03/24 12:09:05;;;;;;;13.63;10.30;;;25.40;27.80;;;;;;4908214;29;20469;-87
2022/03/24 12:12:04;;;;;;;16.07;11.60;;;26.30;26.40;;;;;;4891449;29;20454;-84
2022/03/24 12:14:46;;;;;;;17.90;12.93;;;25.80;26.80;;;;;;4900988;29;20550;-84
2022/03/24 12:17:19;;;;;;;17.77;13.83;;;25.80;27.10;;;;;;4900924;29;20494;-86
2022/03/24 12:19:53;;;;;;;18.33;14.27;;;25.60;27.40;;;;;;4885910;29;21088;-83
2022/03/24 12:22:26;;;;;;;19.77;15.83;;;25.80;27.50;;;;;;4908010;29;20521;-87
2022/03/24 12:25:00;;;;;;;17.33;13.60;;;25.90;27.20;;;;;;4922137;29;20506;-85
2022/03/24 12:28:12;;;;;;;19.80;13.10;;;25.00;28.20;;;;;;4858651;29;20450;-82
2022/03/24 12:30:51;;;;;;;16.80;12.17;;;24.40;28.30;;;;;;4859458;29;20558;-83
2022/03/24 12:33:39;;;;;;;21.63;11.37;;;24.30;28.60;;;;;;4913863;29;20466;-85
2022/03/24 12:36:50;;;;;;;17.90;12.27;;;23.80;28.00;;;;;;4882468;29;20554;-84
2022/03/24 12:39:37;;;;;;;22.03;15.00;;;23.60;28.20;;;;;;4884124;29;20473;-84
2022/03/24 12:42:21;;;;;;;18.33;14.70;;;23.80;29.00;;;;;;4885375;29;20521;-82
2022/03/24 12:45:42;;;;;;;18.07;13.47;;;23.70;28.40;;;;;;4882059;29;20530;-86
2022/03/24 12:48:45;;;;;;;16.77;13.83;;;24.00;28.20;;;;;;4884874;29;20541;-86
2022/03/24 12:51:22;;;;;;;19.50;15.13;;;24.00;27.10;;;;;;4885067;29;20471;-86
2022/03/24 12:54:21;;;;;;;18.37;14.83;;;23.80;27.60;;;;;;4899100;29;20540;-85
2022/03/24 12:57:32;;;;;;;17.13;15.10;;;23.40;28.50;;;;;;4938967;28;20503;-86
2022/03/24 13:00:17;;;;;;;18.87;15.33;;;23.50;28.50;;;;;;4938392;28;20463;-85
2022/03/24 13:02:52;;;;;;;19.57;15.60;;;24.10;28.60;;;;;;4938871;28;20445;-86
2022/03/24 13:05:46;;;;;;;21.27;17.23;;;24.20;28.50;;;;;;4958358;28;20491;-85
2022/03/24 13:08:15;;;;;;;20.97;17.40;;;24.10;28.40;;;;;;4937451;28;20552;-86
2022/03/24 13:10:58;;;;;;;21.60;16.07;;;23.90;28.60;;;;;;4951624;28;20469;-85
2022/03/24 13:13:33;;;;;;;29.23;17.43;;;24.10;28.50;;;;;;4938267;28;20951;-84
2022/03/24 13:16:20;;;;;;;17.17;14.50;;;24.00;28.60;;;;;;4942632;28;20587;-84
2022/03/24 13:19:02;;;;;;;22.90;15.83;;;24.10;28.10;;;;;;4946341;28;20472;-86
2022/03/24 13:21:35;;;;;;;17.43;14.80;;;24.30;28.20;;;;;;4945624;29;20458;-87
2022/03/24 13:24:25;;;;;;;21.20;15.70;;;24.90;28.10;;;;;;4943465;29;21215;-86
2022/03/24 13:30:15;;;;;;;20.50;17.60;;;24.60;27.70;;;;;;4941600;28;20563;-87
2022/03/24 13:33:08;;;;;;;;;;;;;;;;;;;;;